sensor_id;sensor_type;location;lat;lon;timestamp;temperature;humidity
69598;SHT31;70000;51.176;-115.568;2023-06-14T00:02:07;22.33;46.24
69598;SHT31;70000;51.176;-115.568;2023-06-14T00:04:36;21.62;47.90
69598;SHT31;70000;51.176;-115.568;2023-06-14T00:07:07;21.08;49.53
69598;SHT31;70000;51.176;-115.568;2023-06-14T00:09:39;20.61;50.62
69598;SHT31;70000;51.176;-115.568;2023-06-14T00:12:08;20.33;52.04
69598;SHT31;70000;51.176;-115.568;2023-06-14T00:14:37;20.02;54.37
69598;SHT31;70000;51.176;-115.568;2023-06-14T00:17:06;19.73;54.96
69598;SHT31;70000;51.176;-115.568;2023-06-14T00:19:36;19.40;55.08
69598;SHT31;70000;51.176;-115.568;2023-06-14T00:22:06;19.23;56.15
69598;SHT31;70000;51.176;-115.568;2023-06-14T00:24:35;19.19;56.57
69598;SHT31;70000;51.176;-115.568;2023-06-14T00:27:04;19.10;58.19
69598;SHT31;70000;51.176;-115.568;2023-06-14T00:29:34;19.07;58.61
69598;SHT31;70000;51.176;-115.568;2023-06-14T00:32:03;18.98;61.11
69598;SHT31;70000;51.176;-115.568;2023-06-14T00:34:33;18.57;62.38
69598;SHT31;70000;51.176;-115.568;2023-06-14T00:37:02;18.24;62.84
69598;SHT31;70000;51.176;-115.568;2023-06-14T00:39:31;18.11;64.36
69598;SHT31;70000;51.176;-115.568;2023-06-14T00:42:00;18.01;65.14
69598;SHT31;70000;51.176;-115.568;2023-06-14T00:44:31;17.92;64.54
69598;SHT31;70000;51.176;-115.568;2023-06-14T00:47:01;17.83;64.93
69598;SHT31;70000;51.176;-115.568;2023-06-14T00:49:30;17.74;65.87
69598;SHT31;70000;51.176;-115.568;2023-06-14T00:51:59;17.77;65.78
69598;SHT31;70000;51.176;-115.568;2023-06-14T00:54:29;17.77;65.33
69598;SHT31;70000;51.176;-115.568;2023-06-14T00:56:58;17.77;64.71
69598;SHT31;70000;51.176;-115.568;2023-06-14T00:59:27;17.78;64.78
69598;SHT31;70000;51.176;-115.568;2023-06-14T01:01:56;17.78;65.14
69598;SHT31;70000;51.176;-115.568;2023-06-14T01:04:25;17.79;65.23
69598;SHT31;70000;51.176;-115.568;2023-06-14T01:06:58;17.81;65.44
69598;SHT31;70000;51.176;-115.568;2023-06-14T01:10:25;17.80;65.64
69598;SHT31;70000;51.176;-115.568;2023-06-14T01:16:04;17.63;66.19
69598;SHT31;70000;51.176;-115.568;2023-06-14T01:18:36;17.61;66.07
69598;SHT31;70000;51.176;-115.568;2023-06-14T01:21:05;17.57;66.05
69598;SHT31;70000;51.176;-115.568;2023-06-14T01:23:38;17.49;65.97
69598;SHT31;70000;51.176;-115.568;2023-06-14T01:26:07;17.37;66.90
69598;SHT31;70000;51.176;-115.568;2023-06-14T01:28:36;17.25;68.09
69598;SHT31;70000;51.176;-115.568;2023-06-14T01:31:05;17.19;68.52
69598;SHT31;70000;51.176;-115.568;2023-06-14T01:33:35;17.14;68.32
69598;SHT31;70000;51.176;-115.568;2023-06-14T01:36:05;17.09;68.65
69598;SHT31;70000;51.176;-115.568;2023-06-14T01:38:37;17.05;68.81
69598;SHT31;70000;51.176;-115.568;2023-06-14T01:41:08;16.99;69.36
69598;SHT31;70000;51.176;-115.568;2023-06-14T01:43:39;16.95;69.83
69598;SHT31;70000;51.176;-115.568;2023-06-14T01:46:10;16.94;70.39
69598;SHT31;70000;51.176;-115.568;2023-06-14T01:48:41;16.85;70.81
69598;SHT31;70000;51.176;-115.568;2023-06-14T01:51:11;16.73;71.20
69598;SHT31;70000;51.176;-115.568;2023-06-14T01:53:40;16.61;71.75
69598;SHT31;70000;51.176;-115.568;2023-06-14T01:56:09;16.54;71.90
69598;SHT31;70000;51.176;-115.568;2023-06-14T01:58:38;16.52;72.30
69598;SHT31;70000;51.176;-115.568;2023-06-14T02:01:07;16.50;72.31
69598;SHT31;70000;51.176;-115.568;2023-06-14T02:03:37;16.51;72.35
69598;SHT31;70000;51.176;-115.568;2023-06-14T02:06:06;16.51;72.39
69598;SHT31;70000;51.176;-115.568;2023-06-14T02:08:35;16.48;72.11
69598;SHT31;70000;51.176;-115.568;2023-06-14T02:11:04;16.50;72.02
69598;SHT31;70000;51.176;-115.568;2023-06-14T02:13:33;16.49;71.28
69598;SHT31;70000;51.176;-115.568;2023-06-14T02:16:02;16.44;70.73
69598;SHT31;70000;51.176;-115.568;2023-06-14T02:18:31;16.37;70.37
69598;SHT31;70000;51.176;-115.568;2023-06-14T02:21:00;16.31;69.99
69598;SHT31;70000;51.176;-115.568;2023-06-14T02:23:29;16.24;70.24
69598;SHT31;70000;51.176;-115.568;2023-06-14T02:26:01;16.21;70.27
69598;SHT31;70000;51.176;-115.568;2023-06-14T02:28:30;16.20;70.12
69598;SHT31;70000;51.176;-115.568;2023-06-14T02:30:59;16.15;69.29
69598;SHT31;70000;51.176;-115.568;2023-06-14T02:33:28;16.13;68.93
69598;SHT31;70000;51.176;-115.568;2023-06-14T02:35:57;16.09;67.83
69598;SHT31;70000;51.176;-115.568;2023-06-14T02:38:26;16.04;67.21
69598;SHT31;70000;51.176;-115.568;2023-06-14T02:40:56;16.01;66.05
69598;SHT31;70000;51.176;-115.568;2023-06-14T02:43:28;15.95;65.45
69598;SHT31;70000;51.176;-115.568;2023-06-14T02:45:57;15.87;65.33
69598;SHT31;70000;51.176;-115.568;2023-06-14T02:48:27;15.79;65.56
69598;SHT31;70000;51.176;-115.568;2023-06-14T02:50:56;15.74;65.59
69598;SHT31;70000;51.176;-115.568;2023-06-14T02:53:25;15.70;65.73
69598;SHT31;70000;51.176;-115.568;2023-06-14T02:55:54;15.66;65.26
69598;SHT31;70000;51.176;-115.568;2023-06-14T02:58:24;15.53;65.23
69598;SHT31;70000;51.176;-115.568;2023-06-14T03:00:53;15.48;66.09
69598;SHT31;70000;51.176;-115.568;2023-06-14T03:03:22;15.47;66.38
69598;SHT31;70000;51.176;-115.568;2023-06-14T03:05:53;15.44;66.45
69598;SHT31;70000;51.176;-115.568;2023-06-14T03:08:23;15.43;66.72
69598;SHT31;70000;51.176;-115.568;2023-06-14T03:10:54;15.39;66.86
69598;SHT31;70000;51.176;-115.568;2023-06-14T03:13:23;15.35;67.72
69598;SHT31;70000;51.176;-115.568;2023-06-14T03:15:54;15.34;67.43
69598;SHT31;70000;51.176;-115.568;2023-06-14T03:18:23;15.32;67.82
69598;SHT31;70000;51.176;-115.568;2023-06-14T03:20:54;15.26;68.32
69598;SHT31;70000;51.176;-115.568;2023-06-14T03:23:25;15.20;68.64
69598;SHT31;70000;51.176;-115.568;2023-06-14T03:25:55;15.14;69.26
69598;SHT31;70000;51.176;-115.568;2023-06-14T03:28:23;15.08;69.30
69598;SHT31;70000;51.176;-115.568;2023-06-14T03:30:53;15.00;69.39
69598;SHT31;70000;51.176;-115.568;2023-06-14T03:33:22;14.96;69.63
69598;SHT31;70000;51.176;-115.568;2023-06-14T03:35:52;14.91;68.93
69598;SHT31;70000;51.176;-115.568;2023-06-14T03:38:22;14.88;69.00
69598;SHT31;70000;51.176;-115.568;2023-06-14T03:40:51;14.85;69.23
69598;SHT31;70000;51.176;-115.568;2023-06-14T03:43:20;14.85;69.66
69598;SHT31;70000;51.176;-115.568;2023-06-14T03:45:49;14.83;69.59
69598;SHT31;70000;51.176;-115.568;2023-06-14T03:48:18;14.78;68.89
69598;SHT31;70000;51.176;-115.568;2023-06-14T03:50:47;14.72;69.27
69598;SHT31;70000;51.176;-115.568;2023-06-14T03:53:16;14.71;68.59
69598;SHT31;70000;51.176;-115.568;2023-06-14T03:55:48;14.71;68.57
69598;SHT31;70000;51.176;-115.568;2023-06-14T03:58:22;14.72;68.71
69598;SHT31;70000;51.176;-115.568;2023-06-14T04:00:52;14.73;67.88
69598;SHT31;70000;51.176;-115.568;2023-06-14T04:03:21;14.74;67.47
69598;SHT31;70000;51.176;-115.568;2023-06-14T04:05:52;14.72;68.42
69598;SHT31;70000;51.176;-115.568;2023-06-14T04:08:24;14.69;68.20
69598;SHT31;70000;51.176;-115.568;2023-06-14T04:10:56;14.69;68.21
69598;SHT31;70000;51.176;-115.568;2023-06-14T04:13:25;14.67;68.46
69598;SHT31;70000;51.176;-115.568;2023-06-14T04:15:55;14.64;69.69
69598;SHT31;70000;51.176;-115.568;2023-06-14T04:18:24;14.61;70.10
69598;SHT31;70000;51.176;-115.568;2023-06-14T04:20:53;14.63;70.23
69598;SHT31;70000;51.176;-115.568;2023-06-14T04:23:24;14.65;69.93
69598;SHT31;70000;51.176;-115.568;2023-06-14T04:25:55;14.64;70.01
69598;SHT31;70000;51.176;-115.568;2023-06-14T04:28:29;14.63;70.08
69598;SHT31;70000;51.176;-115.568;2023-06-14T04:30:58;14.64;70.05
69598;SHT31;70000;51.176;-115.568;2023-06-14T04:33:29;14.64;70.08
69598;SHT31;70000;51.176;-115.568;2023-06-14T04:35:59;14.65;70.16
69598;SHT31;70000;51.176;-115.568;2023-06-14T04:38:28;14.65;70.80
69598;SHT31;70000;51.176;-115.568;2023-06-14T04:41:02;14.66;71.13
69598;SHT31;70000;51.176;-115.568;2023-06-14T04:43:31;14.67;69.87
69598;SHT31;70000;51.176;-115.568;2023-06-14T04:46:05;14.68;70.11
69598;SHT31;70000;51.176;-115.568;2023-06-14T04:48:38;14.66;70.12
69598;SHT31;70000;51.176;-115.568;2023-06-14T04:51:10;14.67;68.93
69598;SHT31;70000;51.176;-115.568;2023-06-14T04:53:40;14.63;68.99
69598;SHT31;70000;51.176;-115.568;2023-06-14T04:56:10;14.60;68.99
69598;SHT31;70000;51.176;-115.568;2023-06-14T04:58:38;14.56;68.95
69598;SHT31;70000;51.176;-115.568;2023-06-14T05:01:08;14.54;69.22
69598;SHT31;70000;51.176;-115.568;2023-06-14T05:03:37;14.48;70.08
69598;SHT31;70000;51.176;-115.568;2023-06-14T05:06:06;14.43;70.67
69598;SHT31;70000;51.176;-115.568;2023-06-14T05:08:35;14.40;70.81
69598;SHT31;70000;51.176;-115.568;2023-06-14T05:11:04;14.40;71.07
69598;SHT31;70000;51.176;-115.568;2023-06-14T05:13:33;14.38;71.34
69598;SHT31;70000;51.176;-115.568;2023-06-14T05:16:03;14.37;71.43
69598;SHT31;70000;51.176;-115.568;2023-06-14T05:18:33;14.33;71.38
69598;SHT31;70000;51.176;-115.568;2023-06-14T05:21:02;14.32;72.07
69598;SHT31;70000;51.176;-115.568;2023-06-14T05:23:35;14.34;72.42
69598;SHT31;70000;51.176;-115.568;2023-06-14T05:26:04;14.35;72.34
69598;SHT31;70000;51.176;-115.568;2023-06-14T05:28:34;14.35;72.14
69598;SHT31;70000;51.176;-115.568;2023-06-14T05:31:04;14.35;72.45
69598;SHT31;70000;51.176;-115.568;2023-06-14T05:33:35;14.34;72.75
69598;SHT31;70000;51.176;-115.568;2023-06-14T05:36:05;14.33;72.33
69598;SHT31;70000;51.176;-115.568;2023-06-14T05:38:35;14.31;72.60
69598;SHT31;70000;51.176;-115.568;2023-06-14T05:41:04;14.29;72.79
69598;SHT31;70000;51.176;-115.568;2023-06-14T05:43:33;14.23;72.57
69598;SHT31;70000;51.176;-115.568;2023-06-14T05:46:01;14.21;72.73
69598;SHT31;70000;51.176;-115.568;2023-06-14T05:48:30;14.16;72.51
69598;SHT31;70000;51.176;-115.568;2023-06-14T05:51:00;14.14;72.56
69598;SHT31;70000;51.176;-115.568;2023-06-14T05:53:29;14.12;72.78
69598;SHT31;70000;51.176;-115.568;2023-06-14T05:55:58;14.12;72.59
69598;SHT31;70000;51.176;-115.568;2023-06-14T05:58:27;14.13;72.63
69598;SHT31;70000;51.176;-115.568;2023-06-14T06:00:56;14.11;72.51
69598;SHT31;70000;51.176;-115.568;2023-06-14T06:03:25;14.08;72.01
69598;SHT31;70000;51.176;-115.568;2023-06-14T06:05:57;14.06;71.91
69598;SHT31;70000;51.176;-115.568;2023-06-14T06:08:26;14.03;71.94
69598;SHT31;70000;51.176;-115.568;2023-06-14T06:35:38;13.86;72.08
69598;SHT31;70000;51.176;-115.568;2023-06-14T06:38:08;13.86;71.99
69598;SHT31;70000;51.176;-115.568;2023-06-14T06:40:37;13.88;71.99
69598;SHT31;70000;51.176;-115.568;2023-06-14T06:43:06;13.85;72.46
69598;SHT31;70000;51.176;-115.568;2023-06-14T06:45:35;13.79;72.76
69598;SHT31;70000;51.176;-115.568;2023-06-14T06:48:04;13.79;72.81
69598;SHT31;70000;51.176;-115.568;2023-06-14T06:50:34;13.81;72.62
69598;SHT31;70000;51.176;-115.568;2023-06-14T06:53:03;13.82;72.59
69598;SHT31;70000;51.176;-115.568;2023-06-14T06:55:33;13.83;72.85
69598;SHT31;70000;51.176;-115.568;2023-06-14T06:58:02;13.84;73.00
69598;SHT31;70000;51.176;-115.568;2023-06-14T07:00:32;13.84;73.27
69598;SHT31;70000;51.176;-115.568;2023-06-14T07:03:01;13.83;73.58
69598;SHT31;70000;51.176;-115.568;2023-06-14T07:05:31;13.83;73.79
69598;SHT31;70000;51.176;-115.568;2023-06-14T07:08:00;13.84;74.01
69598;SHT31;70000;51.176;-115.568;2023-06-14T07:10:30;13.86;73.73
69598;SHT31;70000;51.176;-115.568;2023-06-14T07:12:59;13.86;73.47
69598;SHT31;70000;51.176;-115.568;2023-06-14T07:15:28;13.86;73.40
69598;SHT31;70000;51.176;-115.568;2023-06-14T07:17:57;13.80;73.52
69598;SHT31;70000;51.176;-115.568;2023-06-14T07:20:27;13.77;73.68
69598;SHT31;70000;51.176;-115.568;2023-06-14T07:22:56;13.70;73.99
69598;SHT31;70000;51.176;-115.568;2023-06-14T07:25:25;13.65;74.18
69598;SHT31;70000;51.176;-115.568;2023-06-14T07:27:54;13.64;74.06
69598;SHT31;70000;51.176;-115.568;2023-06-14T07:30:23;13.63;73.85
69598;SHT31;70000;51.176;-115.568;2023-06-14T07:32:54;13.65;73.09
69598;SHT31;70000;51.176;-115.568;2023-06-14T07:35:24;13.65;72.87
69598;SHT31;70000;51.176;-115.568;2023-06-14T07:37:53;13.64;72.79
69598;SHT31;70000;51.176;-115.568;2023-06-14T07:40:23;13.63;72.90
69598;SHT31;70000;51.176;-115.568;2023-06-14T07:42:52;13.60;73.40
69598;SHT31;70000;51.176;-115.568;2023-06-14T07:45:22;13.59;73.76
69598;SHT31;70000;51.176;-115.568;2023-06-14T07:47:51;13.58;73.88
69598;SHT31;70000;51.176;-115.568;2023-06-14T07:50:23;13.57;73.87
69598;SHT31;70000;51.176;-115.568;2023-06-14T07:52:52;13.56;73.90
69598;SHT31;70000;51.176;-115.568;2023-06-14T07:55:22;13.56;73.84
69598;SHT31;70000;51.176;-115.568;2023-06-14T07:57:53;13.56;73.60
69598;SHT31;70000;51.176;-115.568;2023-06-14T08:00:23;13.58;73.31
69598;SHT31;70000;51.176;-115.568;2023-06-14T08:02:52;13.60;73.17
69598;SHT31;70000;51.176;-115.568;2023-06-14T08:05:27;13.59;73.07
69598;SHT31;70000;51.176;-115.568;2023-06-14T08:07:57;13.58;73.18
69598;SHT31;70000;51.176;-115.568;2023-06-14T08:10:26;13.60;73.04
69598;SHT31;70000;51.176;-115.568;2023-06-14T08:12:55;13.60;73.16
69598;SHT31;70000;51.176;-115.568;2023-06-14T08:15:24;13.59;73.15
69598;SHT31;70000;51.176;-115.568;2023-06-14T08:17:53;13.57;73.29
69598;SHT31;70000;51.176;-115.568;2023-06-14T08:20:22;13.54;73.48
69598;SHT31;70000;51.176;-115.568;2023-06-14T08:22:52;13.54;73.21
69598;SHT31;70000;51.176;-115.568;2023-06-14T08:25:24;13.53;73.24
69598;SHT31;70000;51.176;-115.568;2023-06-14T08:27:54;13.53;73.17
69598;SHT31;70000;51.176;-115.568;2023-06-14T08:30:23;13.55;72.97
69598;SHT31;70000;51.176;-115.568;2023-06-14T08:32:52;13.56;73.07
69598;SHT31;70000;51.176;-115.568;2023-06-14T08:35:41;13.56;72.74
69598;SHT31;70000;51.176;-115.568;2023-06-14T08:38:11;13.54;72.77
69598;SHT31;70000;51.176;-115.568;2023-06-14T08:40:43;13.52;73.02
69598;SHT31;70000;51.176;-115.568;2023-06-14T08:43:18;13.46;73.27
69598;SHT31;70000;51.176;-115.568;2023-06-14T08:45:48;13.41;73.36
69598;SHT31;70000;51.176;-115.568;2023-06-14T08:48:26;13.38;73.61
69598;SHT31;70000;51.176;-115.568;2023-06-14T08:50:55;13.36;73.84
69598;SHT31;70000;51.176;-115.568;2023-06-14T08:53:30;13.37;74.01
69598;SHT31;70000;51.176;-115.568;2023-06-14T08:56:05;13.39;73.99
69598;SHT31;70000;51.176;-115.568;2023-06-14T08:58:35;13.37;74.17
69598;SHT31;70000;51.176;-115.568;2023-06-14T09:01:08;13.35;74.38
69598;SHT31;70000;51.176;-115.568;2023-06-14T09:03:42;13.38;74.24
69598;SHT31;70000;51.176;-115.568;2023-06-14T09:06:12;13.39;74.34
69598;SHT31;70000;51.176;-115.568;2023-06-14T09:08:43;13.41;74.01
69598;SHT31;70000;51.176;-115.568;2023-06-14T09:11:16;13.41;74.12
69598;SHT31;70000;51.176;-115.568;2023-06-14T09:13:50;13.44;74.32
69598;SHT31;70000;51.176;-115.568;2023-06-14T09:16:19;13.44;74.15
69598;SHT31;70000;51.176;-115.568;2023-06-14T09:18:48;13.41;73.97
69598;SHT31;70000;51.176;-115.568;2023-06-14T09:21:18;13.41;74.21
69598;SHT31;70000;51.176;-115.568;2023-06-14T09:23:48;13.42;74.34
69598;SHT31;70000;51.176;-115.568;2023-06-14T09:26:18;13.41;74.36
69598;SHT31;70000;51.176;-115.568;2023-06-14T09:28:48;13.41;74.38
69598;SHT31;70000;51.176;-115.568;2023-06-14T09:31:19;13.41;74.37
69598;SHT31;70000;51.176;-115.568;2023-06-14T09:33:50;13.40;74.54
69598;SHT31;70000;51.176;-115.568;2023-06-14T09:36:23;13.41;74.41
69598;SHT31;70000;51.176;-115.568;2023-06-14T09:38:55;13.41;74.63
69598;SHT31;70000;51.176;-115.568;2023-06-14T09:41:36;13.43;74.73
69598;SHT31;70000;51.176;-115.568;2023-06-14T09:44:10;13.40;74.77
69598;SHT31;70000;51.176;-115.568;2023-06-14T09:46:47;13.38;74.76
69598;SHT31;70000;51.176;-115.568;2023-06-14T09:49:17;13.37;74.77
69598;SHT31;70000;51.176;-115.568;2023-06-14T09:51:49;13.40;74.73
69598;SHT31;70000;51.176;-115.568;2023-06-14T09:54:22;13.38;74.53
69598;SHT31;70000;51.176;-115.568;2023-06-14T09:56:55;13.35;74.58
69598;SHT31;70000;51.176;-115.568;2023-06-14T09:59:26;13.37;74.62
69598;SHT31;70000;51.176;-115.568;2023-06-14T10:02:03;13.40;74.62
69598;SHT31;70000;51.176;-115.568;2023-06-14T10:04:46;13.41;74.66
69598;SHT31;70000;51.176;-115.568;2023-06-14T10:07:23;13.40;74.56
69598;SHT31;70000;51.176;-115.568;2023-06-14T10:09:57;13.38;74.62
69598;SHT31;70000;51.176;-115.568;2023-06-14T10:12:27;13.40;74.49
69598;SHT31;70000;51.176;-115.568;2023-06-14T10:14:56;13.41;74.32
69598;SHT31;70000;51.176;-115.568;2023-06-14T10:17:33;13.41;74.34
69598;SHT31;70000;51.176;-115.568;2023-06-14T10:23:10;13.35;74.66
69598;SHT31;70000;51.176;-115.568;2023-06-14T10:25:58;13.25;74.90
69598;SHT31;70000;51.176;-115.568;2023-06-14T10:28:28;13.21;75.28
69598;SHT31;70000;51.176;-115.568;2023-06-14T10:31:01;13.20;75.63
69598;SHT31;70000;51.176;-115.568;2023-06-14T10:34:21;13.24;75.87
69598;SHT31;70000;51.176;-115.568;2023-06-14T10:39:07;13.24;75.90
69598;SHT31;70000;51.176;-115.568;2023-06-14T10:41:53;13.22;76.03
69598;SHT31;70000;51.176;-115.568;2023-06-14T10:46:53;13.23;76.20
69598;SHT31;70000;51.176;-115.568;2023-06-14T10:49:40;13.20;76.29
69598;SHT31;70000;51.176;-115.568;2023-06-14T10:52:16;13.19;76.21
69598;SHT31;70000;51.176;-115.568;2023-06-14T10:57:39;13.10;76.34
69598;SHT31;70000;51.176;-115.568;2023-06-14T11:00:27;13.07;76.57
69598;SHT31;70000;51.176;-115.568;2023-06-14T11:06:10;13.13;76.33
69598;SHT31;70000;51.176;-115.568;2023-06-14T11:11:42;13.16;76.25
69598;SHT31;70000;51.176;-115.568;2023-06-14T11:14:12;13.16;76.31
69598;SHT31;70000;51.176;-115.568;2023-06-14T11:16:41;13.15;76.36
69598;SHT31;70000;51.176;-115.568;2023-06-14T11:19:10;13.19;76.32
69598;SHT31;70000;51.176;-115.568;2023-06-14T11:21:42;13.19;76.38
69598;SHT31;70000;51.176;-115.568;2023-06-14T11:24:16;13.18;76.89
69598;SHT31;70000;51.176;-115.568;2023-06-14T11:26:46;13.16;77.26
69598;SHT31;70000;51.176;-115.568;2023-06-14T11:29:16;13.17;77.64
69598;SHT31;70000;51.176;-115.568;2023-06-14T11:31:48;13.15;77.71
69598;SHT31;70000;51.176;-115.568;2023-06-14T11:34:17;13.05;77.95
69598;SHT31;70000;51.176;-115.568;2023-06-14T11:36:47;12.96;78.46
69598;SHT31;70000;51.176;-115.568;2023-06-14T11:39:16;12.93;78.65
69598;SHT31;70000;51.176;-115.568;2023-06-14T11:41:46;12.93;78.62
69598;SHT31;70000;51.176;-115.568;2023-06-14T11:44:15;12.94;78.65
69598;SHT31;70000;51.176;-115.568;2023-06-14T11:46:44;12.95;78.84
69598;SHT31;70000;51.176;-115.568;2023-06-14T11:49:13;12.92;78.68
69598;SHT31;70000;51.176;-115.568;2023-06-14T11:51:42;12.86;78.67
69598;SHT31;70000;51.176;-115.568;2023-06-14T11:54:12;12.79;78.90
69598;SHT31;70000;51.176;-115.568;2023-06-14T11:56:41;12.76;79.27
69598;SHT31;70000;51.176;-115.568;2023-06-14T11:59:10;12.77;79.33
69598;SHT31;70000;51.176;-115.568;2023-06-14T12:01:42;12.77;79.27
69598;SHT31;70000;51.176;-115.568;2023-06-14T12:04:13;12.74;79.29
69598;SHT31;70000;51.176;-115.568;2023-06-14T12:06:42;12.75;79.33
69598;SHT31;70000;51.176;-115.568;2023-06-14T12:09:11;12.77;79.36
69598;SHT31;70000;51.176;-115.568;2023-06-14T12:11:44;12.78;79.19
69598;SHT31;70000;51.176;-115.568;2023-06-14T12:14:13;12.80;79.14
69598;SHT31;70000;51.176;-115.568;2023-06-14T12:16:44;12.87;78.89
69598;SHT31;70000;51.176;-115.568;2023-06-14T12:19:14;12.91;79.04
69598;SHT31;70000;51.176;-115.568;2023-06-14T12:21:47;12.93;79.21
69598;SHT31;70000;51.176;-115.568;2023-06-14T12:24:17;12.97;79.17
69598;SHT31;70000;51.176;-115.568;2023-06-14T12:26:46;12.99;79.22
69598;SHT31;70000;51.176;-115.568;2023-06-14T12:29:20;12.98;79.32
69598;SHT31;70000;51.176;-115.568;2023-06-14T12:31:49;12.97;79.26
69598;SHT31;70000;51.176;-115.568;2023-06-14T12:34:18;13.01;79.37
69598;SHT31;70000;51.176;-115.568;2023-06-14T12:36:48;13.04;79.13
69598;SHT31;70000;51.176;-115.568;2023-06-14T12:39:18;13.05;78.81
69598;SHT31;70000;51.176;-115.568;2023-06-14T12:41:48;13.04;78.67
69598;SHT31;70000;51.176;-115.568;2023-06-14T12:44:17;13.03;78.71
69598;SHT31;70000;51.176;-115.568;2023-06-14T12:46:46;13.04;78.34
69598;SHT31;70000;51.176;-115.568;2023-06-14T12:49:16;13.00;75.46
69598;SHT31;70000;51.176;-115.568;2023-06-14T12:51:45;12.90;75.13
69598;SHT31;70000;51.176;-115.568;2023-06-14T12:54:14;12.81;73.65
69598;SHT31;70000;51.176;-115.568;2023-06-14T12:56:57;12.74;74.76
69598;SHT31;70000;51.176;-115.568;2023-06-14T12:59:26;12.70;75.31
69598;SHT31;70000;51.176;-115.568;2023-06-14T13:02:21;12.65;74.27
69598;SHT31;70000;51.176;-115.568;2023-06-14T13:04:53;12.55;74.70
69598;SHT31;70000;51.176;-115.568;2023-06-14T13:07:22;12.46;74.37
69598;SHT31;70000;51.176;-115.568;2023-06-14T13:09:51;12.40;73.52
69598;SHT31;70000;51.176;-115.568;2023-06-14T13:12:20;12.36;73.68
69598;SHT31;70000;51.176;-115.568;2023-06-14T13:14:49;12.29;74.03
69598;SHT31;70000;51.176;-115.568;2023-06-14T13:17:18;12.24;73.54
69598;SHT31;70000;51.176;-115.568;2023-06-14T13:19:47;12.21;72.80
69598;SHT31;70000;51.176;-115.568;2023-06-14T13:22:16;12.19;73.46
69598;SHT31;70000;51.176;-115.568;2023-06-14T13:24:45;12.16;72.16
69598;SHT31;70000;51.176;-115.568;2023-06-14T13:27:14;12.12;72.26
69598;SHT31;70000;51.176;-115.568;2023-06-14T13:29:44;12.08;71.66
69598;SHT31;70000;51.176;-115.568;2023-06-14T13:32:13;12.07;72.00
69598;SHT31;70000;51.176;-115.568;2023-06-14T13:34:42;12.04;71.96
69598;SHT31;70000;51.176;-115.568;2023-06-14T13:37:11;12.04;71.92
69598;SHT31;70000;51.176;-115.568;2023-06-14T13:39:40;12.05;71.42
69598;SHT31;70000;51.176;-115.568;2023-06-14T13:42:09;12.00;71.87
69598;SHT31;70000;51.176;-115.568;2023-06-14T13:44:39;11.96;71.14
69598;SHT31;70000;51.176;-115.568;2023-06-14T13:47:08;11.92;71.30
69598;SHT31;70000;51.176;-115.568;2023-06-14T13:49:36;11.92;71.71
69598;SHT31;70000;51.176;-115.568;2023-06-14T13:52:06;11.88;72.64
69598;SHT31;70000;51.176;-115.568;2023-06-14T13:54:35;11.77;73.57
69598;SHT31;70000;51.176;-115.568;2023-06-14T13:57:05;11.63;74.44
69598;SHT31;70000;51.176;-115.568;2023-06-14T13:59:34;11.55;75.19
69598;SHT31;70000;51.176;-115.568;2023-06-14T14:02:06;11.48;76.04
69598;SHT31;70000;51.176;-115.568;2023-06-14T14:04:35;11.40;76.37
69598;SHT31;70000;51.176;-115.568;2023-06-14T14:07:04;11.31;76.54
69598;SHT31;70000;51.176;-115.568;2023-06-14T14:09:35;11.25;76.64
69598;SHT31;70000;51.176;-115.568;2023-06-14T14:12:05;11.24;76.98
69598;SHT31;70000;51.176;-115.568;2023-06-14T14:14:35;11.19;76.53
69598;SHT31;70000;51.176;-115.568;2023-06-14T14:17:03;11.11;76.21
69598;SHT31;70000;51.176;-115.568;2023-06-14T14:19:34;11.05;76.07
69598;SHT31;70000;51.176;-115.568;2023-06-14T14:22:03;10.99;75.76
69598;SHT31;70000;51.176;-115.568;2023-06-14T14:24:33;10.95;76.03
69598;SHT31;70000;51.176;-115.568;2023-06-14T14:27:02;10.92;75.51
69598;SHT31;70000;51.176;-115.568;2023-06-14T14:29:31;10.87;75.51
69598;SHT31;70000;51.176;-115.568;2023-06-14T14:32:01;10.83;75.75
69598;SHT31;70000;51.176;-115.568;2023-06-14T14:34:30;10.81;75.67
69598;SHT31;70000;51.176;-115.568;2023-06-14T14:36:59;10.76;75.38
69598;SHT31;70000;51.176;-115.568;2023-06-14T14:39:28;10.73;75.69
69598;SHT31;70000;51.176;-115.568;2023-06-14T14:41:58;10.72;76.19
69598;SHT31;70000;51.176;-115.568;2023-06-14T14:44:27;10.73;75.84
69598;SHT31;70000;51.176;-115.568;2023-06-14T14:46:56;10.77;75.89
69598;SHT31;70000;51.176;-115.568;2023-06-14T14:49:25;10.83;75.76
69598;SHT31;70000;51.176;-115.568;2023-06-14T14:51:55;10.84;75.68
69598;SHT31;70000;51.176;-115.568;2023-06-14T14:54:44;10.85;75.22
69598;SHT31;70000;51.176;-115.568;2023-06-14T14:57:13;10.77;74.91
69598;SHT31;70000;51.176;-115.568;2023-06-14T14:59:42;10.69;75.69
69598;SHT31;70000;51.176;-115.568;2023-06-14T15:02:11;10.67;75.90
69598;SHT31;70000;51.176;-115.568;2023-06-14T15:04:40;10.66;75.57
69598;SHT31;70000;51.176;-115.568;2023-06-14T15:07:09;10.63;75.37
69598;SHT31;70000;51.176;-115.568;2023-06-14T15:09:38;10.60;75.59
69598;SHT31;70000;51.176;-115.568;2023-06-14T15:12:08;10.61;75.39
69598;SHT31;70000;51.176;-115.568;2023-06-14T15:14:38;10.59;75.65
69598;SHT31;70000;51.176;-115.568;2023-06-14T15:17:08;10.57;75.81
69598;SHT31;70000;51.176;-115.568;2023-06-14T15:19:37;10.61;76.09
69598;SHT31;70000;51.176;-115.568;2023-06-14T15:22:06;10.63;76.08
69598;SHT31;70000;51.176;-115.568;2023-06-14T15:24:35;10.65;75.94
69598;SHT31;70000;51.176;-115.568;2023-06-14T15:27:10;10.66;76.41
69598;SHT31;70000;51.176;-115.568;2023-06-14T15:29:44;10.68;76.92
69598;SHT31;70000;51.176;-115.568;2023-06-14T15:32:17;10.71;76.94
69598;SHT31;70000;51.176;-115.568;2023-06-14T15:34:46;10.74;76.49
69598;SHT31;70000;51.176;-115.568;2023-06-14T15:37:16;10.74;76.14
69598;SHT31;70000;51.176;-115.568;2023-06-14T15:39:45;10.74;76.01
69598;SHT31;70000;51.176;-115.568;2023-06-14T15:42:14;10.75;76.09
69598;SHT31;70000;51.176;-115.568;2023-06-14T15:44:43;10.79;75.35
69598;SHT31;70000;51.176;-115.568;2023-06-14T15:47:14;10.83;74.74
69598;SHT31;70000;51.176;-115.568;2023-06-14T15:49:42;10.84;74.32
69598;SHT31;70000;51.176;-115.568;2023-06-14T15:52:11;10.85;75.24
69598;SHT31;70000;51.176;-115.568;2023-06-14T15:54:40;10.87;74.64